Flight Track Log - Related Links

Times and Time Zones

All times are in EST time to prevent confusion due to time zone crossing. See the UCA596 flight status page for this flight to view local times or setup timezone preferences in your user account.

Time Position Orientation Groundspeed Altitude Reporting Facility
EST Latitude Longitude Course Direction KTS MPH feet Rate Location/Type
Fri 12:58:56 PM 38.9833 -77.4500 339° North 129 148 2,800  Level Potomac TRACON
Fri 12:59:50 PM 39.0167 -77.4667 356° North 157 181 3,700 1,278 Climbing Potomac TRACON
Fri 01:00:44 PM 39.0500 -77.4833 339° North 176 203 5,100 1,474 Climbing Potomac TRACON
Fri 01:01:44 PM 39.1167 -77.4833 360° North 198 228 6,500 1,500 Climbing Potomac TRACON
Fri 01:02:44 PM 39.1667 -77.4667 14° North 208 239 8,100 1,459 Climbing Potomac TRACON
Fri 01:04:45 PM 39.2864 -77.4714 358° North 222 255 10,900 1,484 Climbing Washington Center
Fri 01:05:46 PM 39.3469 -77.4728 359° North 217 250 12,600 1,623 Climbing Washington Center
Fri 01:06:47 PM 39.4053 -77.4692 North 217 250 14,200 1,563 Climbing Washington Center
Fri 01:07:45 PM 39.4678 -77.4653 North 217 250 15,700 857 Climbing Washington Center
Fri 01:08:46 PM 39.5408 -77.4617 North 228 262 15,900 843 Climbing Washington Center
Fri 01:09:46 PM 39.6181 -77.4556 North 254 292 17,400 1,348 Climbing Washington Center
Fri 01:11:04 PM 39.7078 -77.4447 North 279 321 19,000 696 Climbing New York Center
Fri 01:12:04 PM 39.7981 -77.3967 22° Northeast 297 342 19,000  Level New York Center
Fri 01:13:04 PM 39.8775 -77.3553 22° Northeast 327 376 19,000  Level New York Center
Fri 01:14:04 PM 39.9806 -77.3028 21° North 342 394 19,000  Level New York Center
Fri 01:15:04 PM 40.0644 -77.2592 22° Northeast 354 407 19,000  Level New York Center
Fri 01:16:04 PM 40.1650 -77.2086 21° North 354 407 19,000  Level New York Center
Fri 01:17:04 PM 40.2486 -77.1675 21° North 354 407 19,000  Level New York Center
Fri 01:18:04 PM 40.3475 -77.1139 22° Northeast 354 407 19,000  Level New York Center
Fri 01:19:04 PM 40.4314 -77.0644 24° Northeast 354 407 19,000  Level New York Center
Fri 01:20:04 PM 40.5281 -77.0078 24° Northeast 349 402 19,000 -500 Level New York Center
Fri 01:21:04 PM 40.6142 -76.9553 25° Northeast 342 394 18,000 -1,300 Descending New York Center
Fri 01:22:04 PM 40.7089 -76.9008 24° Northeast 348 400 16,400 -1,450 Descending New York Center
Fri 01:23:04 PM 40.7992 -76.8458 25° Northeast 348 400 15,100 -1,350 Descending New York Center
Fri 01:24:04 PM 40.8936 -76.7911 24° Northeast 348 400 13,700 -1,050 Descending New York Center
Fri 01:25:04 PM 40.9756 -76.7406 25° Northeast 353 406 13,000 -350 Descending New York Center
Fri 01:26:04 PM 41.0614 -76.6875 25° Northeast 347 399 13,000  Level New York Center
Fri 01:27:04 PM 41.1561 -76.6297 25° Northeast 337 388 13,000  Level New York Center
Fri 01:28:04 PM 41.2397 -76.5817 23° Northeast 332 382 13,000  Level New York Center
Fri 01:29:04 PM 41.3214 -76.5281 26° Northeast 327 376 13,000  Level New York Center
Fri 01:30:04 PM 41.3942 -76.4872 23° Northeast 322 371 13,000  Level New York Center
Fri 01:31:04 PM 41.4758 -76.4361 25° Northeast 322 371 13,000  Level New York Center
Fri 01:32:04 PM 41.5639 -76.3825 24° Northeast 322 371 13,000 -400 Level New York Center
Fri 01:33:04 PM 41.6453 -76.3311 25° Northeast 322 371 12,200 -1,050 Descending New York Center
Fri 01:34:04 PM 41.7289 -76.2797 25° Northeast 327 376 10,900 -1,350 Descending New York Center
Fri 01:35:04 PM 41.8083 -76.2306 25° Northeast 332 382 9,500 -1,500 Descending New York Center
Fri 01:36:04 PM 41.9031 -76.2050 11° North 316 364 7,900 -1,450 Descending New York Center
Fri 01:37:04 PM 41.9869 -76.1950 North 304 350 6,600 -1,000 Descending New York Center
Fri 01:38:04 PM 42.0539 -76.1867 North 289 333 5,900 -750 Descending New York Center
Fri 01:39:04 PM 42.1192 -76.1722 North 264 304 5,100 -800 Descending New York Center
Fri 01:40:04 PM 42.1883 -76.1583 North 250 288 4,300 -850 Descending New York Center
Fri 01:41:04 PM 42.2550 -76.1611 358° North 245 282 3,400 -550 Descending New York Center
Fri 01:42:04 PM 42.3300 -76.1589 North 240 276 3,200 -50 Descending New York Center
Fri 01:43:04 PM 42.3347 -76.0975 84° East 188 216 3,300 50 Climbing New York Center
Fri 01:44:04 PM 42.2886 -76.0572 147° Southeast 109 125 3,300 -400 Level New York Center
Fri 01:45:04 PM 42.2508 -76.0178 142° Southeast 139 160 2,500 -600 Descending New York Center
Fri 01:46:04 PM 42.2214 -75.9792 136° Southeast 144 166 2,100 -400 Descending New York Center
Fri 01:48:00 PM 42.2084 -75.9796 North  Level Estimated
Fri 01:55:00 PM 42.2084 -75.9796 North  Level Estimated
Fri 01:56:00 PM 42.2084 -75.9796 North  Level Estimated
Fri 01:57:00 PM 42.2084 -75.9796 North  Level Estimated
Fri 01:58:00 PM 42.2084 -75.9796 North  Level Estimated
Fri 01:59:00 PM 42.2084 -75.9796 North  Level Estimated
Fri 02:00:00 PM 42.2084 -75.9796 North  Level Estimated
Fri 02:01:00 PM 42.2084 -75.9796 North  Level Estimated

Login

Don't have an account? Register now (free) for customized features, flight alerts, and more!